createdAt,value
2023-04-09T00:02:10.716Z,82.94
2023-04-09T00:04:42.291Z,82.90
2023-04-09T00:07:13.839Z,83.78
2023-04-09T00:09:45.323Z,83.60
2023-04-09T00:12:16.831Z,83.68
2023-04-09T00:14:48.354Z,83.82
2023-04-09T00:17:19.914Z,83.60
2023-04-09T00:19:51.455Z,83.44
2023-04-09T00:22:22.941Z,84.11
2023-04-09T00:24:54.416Z,84.12
2023-04-09T00:27:25.898Z,83.89
2023-04-09T00:29:57.386Z,83.94
2023-04-09T00:32:28.858Z,83.96
2023-04-09T00:35:00.410Z,83.87
2023-04-09T00:37:31.901Z,84.39
2023-04-09T00:40:04.171Z,84.32
2023-04-09T00:42:37.499Z,84.21
2023-04-09T00:45:09.369Z,84.03
2023-04-09T00:47:43.077Z,83.67
2023-04-09T00:50:14.686Z,83.72
2023-04-09T00:52:46.256Z,84.00
2023-04-09T00:55:18.820Z,83.56
2023-04-09T00:57:50.299Z,83.86
2023-04-09T01:00:21.971Z,83.70
2023-04-09T01:02:55.813Z,83.67
2023-04-09T01:05:34.508Z,84.04
2023-04-09T01:08:52.166Z,83.97
2023-04-09T01:11:38.862Z,83.53
2023-04-09T01:14:35.483Z,83.74
2023-04-09T01:17:17.551Z,83.99
2023-04-09T01:20:01.749Z,83.98
2023-04-09T01:22:51.396Z,84.24
2023-04-09T01:25:53.460Z,84.26
2023-04-09T01:28:33.587Z,84.27
2023-04-09T01:31:11.827Z,83.94
2023-04-09T01:33:44.770Z,83.97
2023-04-09T01:36:17.229Z,84.36
2023-04-09T01:38:51.320Z,84.27
2023-04-09T01:41:24.960Z,83.76
2023-04-09T01:43:57.580Z,84.18
2023-04-09T01:46:30.099Z,83.97
2023-04-09T01:49:02.798Z,83.80
2023-04-09T01:51:34.880Z,83.66
2023-04-09T01:54:06.420Z,83.67
2023-04-09T01:56:46.337Z,83.84
2023-04-09T01:59:17.893Z,84.02
2023-04-09T02:02:01.303Z,83.87
2023-04-09T02:04:34.337Z,83.77
2023-04-09T02:07:27.561Z,83.73
2023-04-09T02:10:00.886Z,83.59
2023-04-09T02:12:36.339Z,83.99
2023-04-09T02:15:08.413Z,83.92
2023-04-09T02:17:40.081Z,83.88
2023-04-09T02:20:12.104Z,83.81
2023-04-09T02:22:43.622Z,83.92
2023-04-09T02:25:15.584Z,83.93
2023-04-09T02:27:47.132Z,83.84
2023-04-09T02:30:18.575Z,84.08
2023-04-09T02:32:50.159Z,84.51
2023-04-09T02:35:21.731Z,84.68
2023-04-09T02:37:53.172Z,84.13
2023-04-09T02:40:24.687Z,84.32
2023-04-09T02:42:56.208Z,84.46
2023-04-09T02:45:27.676Z,83.99
2023-04-09T02:47:59.192Z,83.77
2023-04-09T02:50:30.754Z,83.41
2023-04-09T02:53:02.317Z,83.60
2023-04-09T02:55:33.856Z,83.29
2023-04-09T02:58:05.597Z,83.37
2023-04-09T03:00:37.068Z,83.79
2023-04-09T03:03:08.873Z,83.66
2023-04-09T03:05:40.520Z,83.58
2023-04-09T03:08:12.060Z,83.56
2023-04-09T03:10:43.566Z,83.60
2023-04-09T03:13:15.388Z,83.66
2023-04-09T03:15:51.902Z,83.45
2023-04-09T03:18:23.486Z,84.08
2023-04-09T03:20:54.933Z,84.43
2023-04-09T03:23:26.481Z,84.41
2023-04-09T03:26:05.359Z,84.20
2023-04-09T03:28:36.923Z,83.91
2023-04-09T03:31:08.416Z,84.43
2023-04-09T03:33:40.152Z,84.36
2023-04-09T03:36:11.634Z,84.30
2023-04-09T03:38:43.126Z,83.62
2023-04-09T03:41:14.585Z,84.30
2023-04-09T03:43:46.035Z,84.14
2023-04-09T03:46:18.162Z,84.44
2023-04-09T03:48:49.990Z,83.83
2023-04-09T03:51:21.685Z,84.22
2023-04-09T03:53:53.171Z,84.27
2023-04-09T03:56:24.601Z,83.73
2023-04-09T03:58:56.074Z,83.64
2023-04-09T04:01:27.488Z,83.71
2023-04-09T04:03:59.068Z,83.14
2023-04-09T04:06:33.578Z,83.08
2023-04-09T04:09:05.192Z,83.00
2023-04-09T04:11:36.728Z,82.81
2023-04-09T04:14:08.247Z,82.69
2023-04-09T04:16:42.576Z,82.72
2023-04-09T04:19:14.163Z,83.01
2023-04-09T04:21:45.646Z,83.12
2023-04-09T04:24:17.169Z,83.33
2023-04-09T04:26:48.635Z,83.42
2023-04-09T04:29:20.150Z,83.34
2023-04-09T04:31:51.609Z,83.64
2023-04-09T04:34:23.195Z,84.03
2023-04-09T04:36:54.673Z,83.86
2023-04-09T04:39:26.285Z,83.92
2023-04-09T04:41:57.737Z,83.73
2023-04-09T04:44:29.459Z,84.03
2023-04-09T04:47:00.972Z,84.16
2023-04-09T04:49:32.482Z,83.78
2023-04-09T04:52:04.002Z,83.46
2023-04-09T04:54:35.556Z,84.21
2023-04-09T04:57:07.026Z,84.32
2023-04-09T04:59:39.949Z,83.72
2023-04-09T05:02:11.817Z,83.78
2023-04-09T05:04:43.395Z,83.73
2023-04-09T05:07:14.842Z,83.48
2023-04-09T05:09:46.337Z,84.34
2023-04-09T05:12:18.072Z,84.12
2023-04-09T05:14:49.648Z,84.46
2023-04-09T05:17:21.091Z,83.86
2023-04-09T05:19:53.590Z,84.61
2023-04-09T05:22:25.084Z,84.00
2023-04-09T05:24:56.546Z,83.95
2023-04-09T05:27:28.897Z,83.93
2023-04-09T05:30:01.025Z,83.70
2023-04-09T05:32:32.721Z,83.55
2023-04-09T05:35:04.738Z,83.37
2023-04-09T05:37:36.215Z,83.34
2023-04-09T05:40:08.274Z,83.09
2023-04-09T05:42:39.736Z,83.68
2023-04-09T05:45:11.442Z,83.59
2023-04-09T05:47:42.965Z,83.36
2023-04-09T05:50:14.487Z,82.94
2023-04-09T05:52:46.054Z,82.91
2023-04-09T05:55:17.513Z,82.92
2023-04-09T05:57:49.105Z,82.74
2023-04-09T06:00:21.683Z,82.32
2023-04-09T06:02:53.227Z,82.35
2023-04-09T06:05:24.780Z,82.19
2023-04-09T06:07:56.473Z,81.80
2023-04-09T06:10:27.997Z,81.35
2023-04-09T06:12:59.562Z,81.42
2023-04-09T06:15:31.354Z,80.80
2023-04-09T06:18:03.210Z,80.70
2023-04-09T06:20:34.743Z,80.28
2023-04-09T06:23:06.284Z,79.50
2023-04-09T06:25:37.803Z,79.22
2023-04-09T06:28:09.271Z,79.41
2023-04-09T06:30:41.321Z,78.93
2023-04-09T06:33:12.931Z,77.87
2023-04-09T06:35:44.432Z,77.46
2023-04-09T06:38:16.645Z,78.27
2023-04-09T06:40:48.184Z,77.73
2023-04-09T06:43:19.704Z,77.24
2023-04-09T06:45:51.404Z,77.12
2023-04-09T06:48:22.988Z,76.88
2023-04-09T06:50:54.570Z,77.10
2023-04-09T06:53:26.186Z,76.79
2023-04-09T06:55:57.699Z,75.66
2023-04-09T06:58:29.141Z,74.99
2023-04-09T07:01:01.035Z,73.84
2023-04-09T07:03:32.806Z,73.78
2023-04-09T07:06:04.498Z,73.43
2023-04-09T07:08:36.224Z,72.55
2023-04-09T07:11:07.812Z,72.13
2023-04-09T07:13:39.349Z,71.49
2023-04-09T07:16:10.957Z,70.88
2023-04-09T07:18:42.567Z,70.83
2023-04-09T07:21:14.103Z,70.14
2023-04-09T07:23:45.821Z,68.91
2023-04-09T07:26:17.457Z,69.14
2023-04-09T07:28:48.955Z,68.15
2023-04-09T07:31:20.475Z,67.81
2023-04-09T07:33:52.135Z,66.22
2023-04-09T07:36:23.898Z,66.84
2023-04-09T07:38:55.722Z,66.13
2023-04-09T07:41:27.258Z,65.31
2023-04-09T07:43:59.277Z,65.11
2023-04-09T07:46:30.813Z,63.59
2023-04-09T07:49:02.352Z,64.84
2023-04-09T07:51:33.813Z,63.81
2023-04-09T07:54:05.811Z,63.09
2023-04-09T07:56:37.348Z,63.93
2023-04-09T07:59:08.906Z,62.55
2023-04-09T08:01:40.558Z,62.94
2023-04-09T08:04:13.798Z,63.23
2023-04-09T08:06:51.071Z,62.20
2023-04-09T08:09:23.346Z,61.91
2023-04-09T08:11:54.866Z,61.84
2023-04-09T08:14:26.401Z,61.59
2023-04-09T08:16:57.831Z,60.24
2023-04-09T08:19:29.342Z,60.98
2023-04-09T08:22:01.505Z,59.73
2023-04-09T08:24:33.069Z,58.91
2023-04-09T08:27:04.577Z,58.50
2023-04-09T08:29:36.051Z,56.97
2023-04-09T08:32:08.109Z,57.66
2023-04-09T08:34:39.701Z,57.49
2023-04-09T08:37:11.261Z,56.55
2023-04-09T08:39:42.757Z,57.51
2023-04-09T08:42:15.143Z,55.10
2023-04-09T08:44:46.541Z,53.11
2023-04-09T08:47:20.576Z,54.04
2023-04-09T08:49:52.227Z,54.21
2023-04-09T08:52:33.265Z,54.96
2023-04-09T08:55:05.281Z,53.94
2023-04-09T08:57:39.759Z,53.34
2023-04-09T09:00:12.293Z,53.85
2023-04-09T09:03:03.402Z,53.28
2023-04-09T09:05:45.854Z,52.63
2023-04-09T09:08:26.755Z,52.43
2023-04-09T09:10:58.536Z,52.20
2023-04-09T09:13:30.237Z,52.83
2023-04-09T09:16:16.134Z,53.61
2023-04-09T09:18:48.283Z,52.53
2023-04-09T09:21:19.849Z,51.99
2023-04-09T09:23:51.374Z,52.22
2023-04-09T09:26:28.793Z,51.87
2023-04-09T09:29:04.143Z,52.01
2023-04-09T09:31:49.128Z,51.14
2023-04-09T09:34:22.503Z,50.28
2023-04-09T09:36:54.288Z,50.21
2023-04-09T09:39:44.293Z,50.00
2023-04-09T09:42:16.097Z,49.77
2023-04-09T09:44:48.351Z,49.78
2023-04-09T09:47:21.526Z,49.27
2023-04-09T09:49:53.160Z,50.32
2023-04-09T09:52:26.975Z,48.98
2023-04-09T09:55:05.285Z,50.37
2023-04-09T09:57:40.634Z,50.92
2023-04-09T10:00:14.117Z,50.92
2023-04-09T10:02:59.223Z,50.11
2023-04-09T10:05:31.474Z,48.60
2023-04-09T10:08:04.548Z,49.53
2023-04-09T10:10:38.191Z,49.13
2023-04-09T10:13:16.107Z,47.59
2023-04-09T10:15:48.762Z,48.05
2023-04-09T10:18:21.359Z,47.35
2023-04-09T10:20:58.780Z,47.20
2023-04-09T10:23:39.660Z,46.70
2023-04-09T10:26:11.666Z,44.53
2023-04-09T10:28:43.412Z,44.19
2023-04-09T10:31:15.070Z,43.09
2023-04-09T10:33:46.761Z,44.94
2023-04-09T10:36:19.257Z,44.65
2023-04-09T10:38:51.590Z,43.55
2023-04-09T10:41:27.908Z,43.19
2023-04-09T10:43:59.579Z,43.45
2023-04-09T10:46:36.314Z,43.27
2023-04-09T10:49:18.506Z,43.68
2023-04-09T10:52:12.028Z,44.28
2023-04-09T10:54:46.217Z,44.61
2023-04-09T10:57:22.254Z,43.69
2023-04-09T10:59:55.871Z,43.50
2023-04-09T11:02:39.971Z,43.15
2023-04-09T11:05:18.222Z,43.51
2023-04-09T11:07:57.450Z,41.21
2023-04-09T11:10:29.292Z,43.27
2023-04-09T11:13:01.379Z,41.48
2023-04-09T11:15:36.856Z,42.82
2023-04-09T11:18:09.878Z,42.24
2023-04-09T11:20:41.907Z,42.72
2023-04-09T11:23:14.210Z,42.53
2023-04-09T11:25:49.006Z,40.70
2023-04-09T11:28:21.018Z,40.92
2023-04-09T11:30:53.220Z,41.54
2023-04-09T11:33:31.416Z,40.58
2023-04-09T11:36:05.757Z,41.00
2023-04-09T11:38:38.941Z,40.01
2023-04-09T11:41:13.510Z,39.92
2023-04-09T11:43:45.357Z,39.55
2023-04-09T11:46:17.353Z,40.92
2023-04-09T11:48:49.025Z,41.48
2023-04-09T11:51:21.175Z,41.20
2023-04-09T11:53:52.914Z,42.57
2023-04-09T11:56:25.307Z,42.67
2023-04-09T11:58:57.282Z,42.97
2023-04-09T12:01:34.934Z,43.71
2023-04-09T12:04:07.919Z,43.65
2023-04-09T12:06:42.981Z,44.86
2023-04-09T12:09:14.838Z,44.40
2023-04-09T12:11:46.638Z,44.26
2023-04-09T12:14:21.462Z,45.18
2023-04-09T12:16:53.123Z,45.94
2023-04-09T12:19:28.177Z,45.13
2023-04-09T12:21:59.673Z,44.25
2023-04-09T12:24:31.222Z,43.61
2023-04-09T12:27:02.928Z,43.18
2023-04-09T12:29:34.880Z,44.01
2023-04-09T12:32:06.496Z,44.55
2023-04-09T12:34:38.070Z,44.29
2023-04-09T12:37:09.739Z,43.59
2023-04-09T12:39:41.678Z,42.58
2023-04-09T12:42:13.198Z,42.17
2023-04-09T12:44:44.759Z,41.61
2023-04-09T12:47:16.355Z,40.20
2023-04-09T12:49:50.045Z,39.92
2023-04-09T12:52:22.556Z,39.29
2023-04-09T12:54:54.050Z,39.11
2023-04-09T12:57:25.757Z,38.70
2023-04-09T12:59:57.672Z,39.30
2023-04-09T13:02:30.062Z,38.12
2023-04-09T13:05:02.465Z,39.19
2023-04-09T13:07:33.916Z,39.35
2023-04-09T13:10:06.107Z,39.15
2023-04-09T13:12:37.645Z,39.20
2023-04-09T13:15:09.447Z,39.48
2023-04-09T13:17:41.059Z,38.53
2023-04-09T13:20:12.792Z,38.71
2023-04-09T13:22:48.733Z,39.48
2023-04-09T13:25:20.436Z,39.36
2023-04-09T13:27:52.109Z,39.51
2023-04-09T13:30:23.604Z,39.10
2023-04-09T13:32:55.404Z,39.53
2023-04-09T13:35:27.182Z,40.52
2023-04-09T13:37:58.726Z,40.86
2023-04-09T13:40:30.399Z,42.24
2023-04-09T13:43:02.089Z,42.96
2023-04-09T13:45:33.673Z,43.14
2023-04-09T13:48:07.024Z,44.34
2023-04-09T13:50:38.635Z,45.41
2023-04-09T13:53:10.135Z,45.46
2023-04-09T13:55:41.641Z,45.63
2023-04-09T13:58:13.174Z,44.62
2023-04-09T14:00:44.725Z,45.04
2023-04-09T14:03:16.508Z,42.71
2023-04-09T14:05:49.122Z,41.59
2023-04-09T14:08:22.939Z,39.70
2023-04-09T14:10:54.502Z,38.61
2023-04-09T14:13:26.056Z,36.02
2023-04-09T14:15:59.922Z,30.92
2023-04-09T14:18:31.806Z,25.16
2023-04-09T14:21:03.416Z,22.62
2023-04-09T14:23:35.181Z,20.24
2023-04-09T14:26:06.988Z,19.97
2023-04-09T14:28:38.464Z,21.08
2023-04-09T14:31:10.044Z,23.50
2023-04-09T14:33:41.662Z,24.70
2023-04-09T14:36:13.269Z,25.03
2023-04-09T14:38:44.853Z,27.70
2023-04-09T14:41:16.897Z,28.11
2023-04-09T14:43:48.390Z,30.62
2023-04-09T14:46:20.311Z,32.09
2023-04-09T14:48:51.937Z,33.06
2023-04-09T14:51:23.715Z,34.43
2023-04-09T14:53:55.280Z,34.26
2023-04-09T14:56:27.108Z,36.75
2023-04-09T14:58:58.636Z,37.39
2023-04-09T15:01:32.536Z,37.95
2023-04-09T15:04:04.671Z,33.45
2023-04-09T15:06:36.310Z,28.39
2023-04-09T15:09:07.941Z,23.45
2023-04-09T15:11:40.025Z,20.92
2023-04-09T15:14:11.558Z,20.14
2023-04-09T15:16:43.153Z,20.63
2023-04-09T15:19:14.702Z,20.23
2023-04-09T15:21:46.266Z,22.61
2023-04-09T15:24:17.741Z,24.24
2023-04-09T15:26:49.820Z,24.71
2023-04-09T15:29:21.462Z,22.49
2023-04-09T15:31:53.345Z,23.53
2023-04-09T15:34:26.125Z,24.92
2023-04-09T15:36:57.702Z,27.45
2023-04-09T15:39:29.247Z,29.15
2023-04-09T15:42:01.826Z,31.13
2023-04-09T15:44:33.341Z,33.73
2023-04-09T15:47:04.835Z,32.70
2023-04-09T15:49:36.872Z,28.08
2023-04-09T15:52:08.468Z,23.98
2023-04-09T15:54:39.963Z,20.69
2023-04-09T15:57:11.734Z,18.66
2023-04-09T15:59:43.102Z,17.13
2023-04-09T16:02:14.866Z,16.73
2023-04-09T16:04:46.283Z,15.89
2023-04-09T16:07:17.944Z,16.83
2023-04-09T16:09:49.493Z,18.90
2023-04-09T16:12:21.259Z,21.01
2023-04-09T16:14:52.987Z,20.21
2023-04-09T16:17:24.937Z,22.37
2023-04-09T16:19:56.534Z,25.44
2023-04-09T16:22:28.944Z,28.20
2023-04-09T16:25:00.498Z,30.17
2023-04-09T16:27:32.108Z,31.38
2023-04-09T16:30:04.164Z,32.84
2023-04-09T16:32:35.845Z,33.76
2023-04-09T16:35:07.683Z,34.52
2023-04-09T16:37:39.198Z,35.52
2023-04-09T16:40:10.833Z,35.79
2023-04-09T16:42:42.266Z,37.49
2023-04-09T16:45:13.757Z,38.12
2023-04-09T16:47:49.651Z,39.54
2023-04-09T16:50:22.831Z,38.74
2023-04-09T16:52:54.331Z,40.88
2023-04-09T16:55:26.024Z,40.63
2023-04-09T16:57:57.533Z,40.55
2023-04-09T17:00:29.156Z,41.55
2023-04-09T17:03:00.900Z,42.02
2023-04-09T17:05:32.720Z,42.23
2023-04-09T17:08:05.973Z,41.78
2023-04-09T17:10:37.500Z,42.67
2023-04-09T17:13:09.198Z,42.98
2023-04-09T17:15:41.438Z,44.06
2023-04-09T17:18:12.887Z,43.99
2023-04-09T17:20:44.373Z,44.19
2023-04-09T17:23:16.113Z,45.09
2023-04-09T17:25:48.498Z,44.55
2023-04-09T17:28:20.089Z,45.13
2023-04-09T17:30:51.980Z,44.44
2023-04-09T17:33:23.473Z,45.25
2023-04-09T17:35:55.137Z,45.39
2023-04-09T17:38:26.990Z,45.36
2023-04-09T17:40:58.604Z,46.61
2023-04-09T17:43:30.081Z,46.77
2023-04-09T17:46:01.735Z,47.07
2023-04-09T17:48:33.308Z,47.79
2023-04-09T17:51:05.739Z,47.23
2023-04-09T17:53:37.211Z,47.93
2023-04-09T17:56:09.862Z,49.08
2023-04-09T17:58:41.364Z,49.24
2023-04-09T18:01:13.716Z,49.10
2023-04-09T18:03:48.381Z,49.45
2023-04-09T18:06:20.078Z,49.57
2023-04-09T18:08:52.432Z,50.33
2023-04-09T18:11:24.502Z,50.07
2023-04-09T18:13:56.234Z,50.74
2023-04-09T18:16:28.303Z,51.50
2023-04-09T18:18:59.895Z,51.81
2023-04-09T18:21:31.840Z,51.84
2023-04-09T18:24:04.154Z,52.71
2023-04-09T18:26:36.707Z,52.24
2023-04-09T18:29:08.562Z,51.62
2023-04-09T18:31:40.261Z,52.55
2023-04-09T18:34:11.791Z,52.42
2023-04-09T18:36:43.367Z,52.87
2023-04-09T18:39:15.197Z,53.53
2023-04-09T18:41:47.077Z,54.13
2023-04-09T18:44:18.797Z,53.89
2023-04-09T18:46:50.496Z,53.85
2023-04-09T18:49:21.997Z,54.73
2023-04-09T18:51:53.466Z,54.57
2023-04-09T18:54:26.174Z,55.23
2023-04-09T18:56:57.794Z,55.26
2023-04-09T18:59:30.010Z,55.47
2023-04-09T19:02:05.863Z,55.18
2023-04-09T19:04:40.041Z,55.72
2023-04-09T19:07:11.844Z,55.40
2023-04-09T19:09:44.484Z,55.76
2023-04-09T19:12:16.533Z,56.48
2023-04-09T19:14:48.097Z,56.45
2023-04-09T19:17:19.906Z,56.78
2023-04-09T19:19:51.542Z,56.71
2023-04-09T19:22:23.112Z,56.70
2023-04-09T19:24:54.744Z,56.74
2023-04-09T19:27:26.622Z,57.38
2023-04-09T19:30:02.299Z,57.33
2023-04-09T19:32:34.147Z,57.58
2023-04-09T19:35:07.096Z,57.45
2023-04-09T19:37:39.769Z,57.86
2023-04-09T19:40:11.531Z,58.55
2023-04-09T19:42:44.749Z,58.28
2023-04-09T19:45:16.810Z,58.74
2023-04-09T19:47:48.398Z,59.01
2023-04-09T19:50:19.910Z,59.25
2023-04-09T19:52:52.292Z,58.92
2023-04-09T19:55:24.937Z,59.21
2023-04-09T19:57:56.657Z,58.69
2023-04-09T20:00:28.832Z,59.57
2023-04-09T20:03:00.604Z,59.39
2023-04-09T20:05:32.728Z,60.14
2023-04-09T20:08:04.583Z,60.29
2023-04-09T20:10:42.780Z,60.50
2023-04-09T20:13:14.364Z,60.83
2023-04-09T20:15:45.944Z,60.89
2023-04-09T20:18:17.457Z,61.01
2023-04-09T20:20:50.566Z,61.11
2023-04-09T20:23:22.214Z,61.11
2023-04-09T20:25:54.994Z,61.47
2023-04-09T20:28:27.722Z,61.00
2023-04-09T20:31:02.987Z,61.02
2023-04-09T20:33:34.642Z,61.44
2023-04-09T20:36:16.946Z,62.10
2023-04-09T20:38:48.599Z,61.69
2023-04-09T20:41:20.218Z,61.82
2023-04-09T20:43:51.720Z,63.01
2023-04-09T20:46:23.241Z,62.34
2023-04-09T20:48:55.714Z,62.93
2023-04-09T20:51:28.212Z,62.75
2023-04-09T20:53:59.782Z,63.41
2023-04-09T20:56:32.037Z,62.82
2023-04-09T20:59:03.881Z,63.70
2023-04-09T21:01:35.844Z,63.65
2023-04-09T21:04:07.639Z,63.75
2023-04-09T21:06:40.300Z,63.64
2023-04-09T21:09:11.874Z,64.61
2023-04-09T21:11:43.367Z,65.06
2023-04-09T21:14:14.849Z,65.02
2023-04-09T21:16:46.477Z,65.06
2023-04-09T21:19:18.264Z,64.93
2023-04-09T21:21:49.962Z,64.82
2023-04-09T21:24:21.522Z,65.19
2023-04-09T21:26:53.029Z,65.47
2023-04-09T21:29:24.594Z,65.58
2023-04-09T21:31:56.258Z,65.50
2023-04-09T21:34:27.802Z,65.75
2023-04-09T21:37:01.983Z,65.67
2023-04-09T21:39:33.572Z,66.11
2023-04-09T21:42:06.357Z,66.19
2023-04-09T21:44:38.950Z,65.95
2023-04-09T21:47:12.023Z,66.18
2023-04-09T21:49:43.669Z,66.40
2023-04-09T21:52:15.245Z,66.29
2023-04-09T21:54:46.882Z,66.20
2023-04-09T21:57:18.977Z,66.16
2023-04-09T21:59:50.749Z,66.22
2023-04-09T22:02:22.413Z,66.19
2023-04-09T22:04:54.054Z,66.18
2023-04-09T22:07:26.146Z,66.46
2023-04-09T22:09:58.226Z,66.67
2023-04-09T22:12:29.775Z,65.88
2023-04-09T22:15:01.470Z,66.35
2023-04-09T22:17:34.369Z,66.91
2023-04-09T22:20:07.004Z,66.28
2023-04-09T22:22:38.587Z,66.11
2023-04-09T22:25:11.677Z,66.00
2023-04-09T22:27:43.833Z,66.14
2023-04-09T22:30:15.827Z,66.50
2023-04-09T22:32:47.679Z,66.45
2023-04-09T22:35:19.381Z,66.29
2023-04-09T22:37:50.947Z,66.46
2023-04-09T22:40:22.444Z,66.25
2023-04-09T22:42:53.890Z,66.82
2023-04-09T22:45:27.792Z,66.90
2023-04-09T22:47:59.410Z,66.08
2023-04-09T22:50:31.008Z,67.31
2023-04-09T22:53:02.591Z,67.44
2023-04-09T22:55:34.096Z,68.06
2023-04-09T22:58:05.576Z,67.87
2023-04-09T23:00:39.762Z,67.71
2023-04-09T23:03:11.462Z,68.00
2023-04-09T23:05:43.818Z,67.62
2023-04-09T23:08:15.350Z,68.59
2023-04-09T23:10:46.975Z,68.51
2023-04-09T23:13:18.495Z,68.18
2023-04-09T23:15:50.026Z,68.53
2023-04-09T23:18:22.918Z,68.97
2023-04-09T23:20:54.490Z,68.31
2023-04-09T23:23:25.981Z,68.39
2023-04-09T23:25:57.528Z,68.93
2023-04-09T23:28:29.467Z,68.91
2023-04-09T23:31:01.206Z,68.56
2023-04-09T23:33:32.822Z,69.43
2023-04-09T23:36:04.655Z,69.31
2023-04-09T23:38:36.258Z,69.49
2023-04-09T23:41:07.825Z,68.91
2023-04-09T23:43:39.551Z,69.07
2023-04-09T23:46:11.194Z,69.33
2023-04-09T23:48:42.715Z,69.80
2023-04-09T23:51:20.558Z,69.41
2023-04-09T23:53:52.346Z,69.52
2023-04-09T23:56:25.067Z,69.36
2023-04-09T23:58:56.788Z,68.79
